Time;durP1;ratioP1;P1;durP2;ratioP2;P2;SDS_P1;SDS_P2;PMS_P1;PMS_P2;Temp;Humidity;BMP_temperature;BMP_pressure;BME280_temperature;BME280_humidity;BME280_pressure;Samples;Min_cycle;Max_cycle;Signal;HPM_P1;HPM_P2
2022/02/16 00:00:26;;;;;;;0.80;0.80;;;5.50;99.90;;;;;;5094201;28;20618;-69
2022/02/16 00:02:52;;;;;;;0.80;0.70;;;5.50;99.90;;;;;;5093561;28;20580;-65
2022/02/16 00:05:18;;;;;;;0.90;0.90;;;5.60;99.90;;;;;;5092654;28;20205;-70
2022/02/16 00:07:44;;;;;;;1.38;0.90;;;5.60;99.90;;;;;;5094027;28;20495;-66
2022/02/16 00:10:12;;;;;;;1.03;0.67;;;5.60;99.90;;;;;;5094091;28;20263;-68
2022/02/16 00:12:39;;;;;;;0.80;0.68;;;5.60;99.90;;;;;;5094183;28;20425;-66
2022/02/16 00:15:06;;;;;;;0.60;0.60;;;5.60;99.90;;;;;;5093952;28;20197;-66
2022/02/16 00:17:32;;;;;;;0.57;0.57;;;5.60;99.90;;;;;;5093912;28;20184;-64
2022/02/16 00:19:58;;;;;;;0.80;0.80;;;5.60;99.90;;;;;;5093999;28;20170;-70
2022/02/16 00:22:23;;;;;;;1.77;1.03;;;5.70;99.90;;;;;;5093714;28;20278;-68
2022/02/16 00:24:49;;;;;;;0.67;0.67;;;5.70;99.90;;;;;;5093215;28;20192;-65
2022/02/16 00:27:14;;;;;;;1.63;0.83;;;5.70;99.90;;;;;;5093836;28;20250;-69
2022/02/16 00:29:40;;;;;;;0.70;0.70;;;5.70;99.90;;;;;;5093820;28;20217;-65
2022/02/16 00:32:06;;;;;;;0.80;0.80;;;5.70;99.90;;;;;;5094107;28;20568;-65
2022/02/16 00:34:32;;;;;;;1.05;0.73;;;5.70;99.90;;;;;;5093306;28;20193;-68
2022/02/16 00:36:58;;;;;;;0.80;0.80;;;5.70;99.90;;;;;;5092885;28;20233;-70
2022/02/16 00:39:23;;;;;;;1.93;1.03;;;5.70;99.90;;;;;;5093518;28;20171;-64
2022/02/16 00:41:49;;;;;;;1.40;1.30;;;5.70;99.90;;;;;;5093683;28;20171;-69
2022/02/16 00:44:15;;;;;;;5.10;1.00;;;5.70;99.90;;;;;;5093393;28;20744;-67
2022/02/16 00:46:40;;;;;;;2.37;0.80;;;5.70;99.90;;;;;;5093349;28;20684;-69
2022/02/16 00:49:06;;;;;;;4.80;0.97;;;5.80;99.90;;;;;;5093469;28;20531;-67
2022/02/16 00:51:32;;;;;;;0.80;0.70;;;5.80;99.90;;;;;;5093482;28;20173;-67
2022/02/16 00:53:57;;;;;;;1.37;0.83;;;5.90;99.90;;;;;;5093294;28;20187;-67
2022/02/16 00:56:23;;;;;;;0.90;0.90;;;6.00;99.90;;;;;;5093379;28;20297;-67
2022/02/16 00:58:48;;;;;;;1.77;1.13;;;6.10;99.90;;;;;;5093423;28;20290;-69
2022/02/16 01:01:14;;;;;;;0.70;0.70;;;6.10;99.90;;;;;;5093603;28;20533;-65
2022/02/16 01:03:40;;;;;;;0.60;0.53;;;6.10;99.90;;;;;;5092901;28;20268;-67
2022/02/16 01:06:05;;;;;;;0.70;0.70;;;6.20;99.90;;;;;;5093460;28;20169;-66
2022/02/16 01:08:31;;;;;;;1.60;0.87;;;6.20;99.90;;;;;;5093464;28;20682;-69
2022/02/16 01:10:57;;;;;;;1.23;1.00;;;6.20;99.90;;;;;;5093099;28;20169;-65
2022/02/16 01:13:25;;;;;;;0.57;0.57;;;6.20;99.90;;;;;;5092536;28;20417;-70
2022/02/16 01:15:53;;;;;;;0.57;0.57;;;6.20;99.90;;;;;;5093338;28;20245;-65
2022/02/16 01:18:18;;;;;;;0.80;0.80;;;6.20;99.90;;;;;;5093228;28;20543;-68
2022/02/16 01:20:44;;;;;;;0.50;0.50;;;6.30;99.90;;;;;;5093209;28;20176;-66
2022/02/16 01:23:11;;;;;;;0.77;0.77;;;6.30;99.90;;;;;;5093041;28;20181;-69
2022/02/16 01:25:37;;;;;;;0.60;0.60;;;6.30;99.90;;;;;;5092595;28;20441;-70
2022/02/16 01:28:03;;;;;;;0.63;0.63;;;6.30;99.90;;;;;;5093235;28;20266;-68
2022/02/16 01:30:28;;;;;;;1.30;0.80;;;6.40;99.90;;;;;;5093336;28;20655;-69
2022/02/16 01:32:54;;;;;;;6.00;0.70;;;6.40;99.90;;;;;;5092677;28;20161;-67
2022/02/16 01:35:20;;;;;;;2.23;0.90;;;6.40;99.90;;;;;;5093122;28;20528;-70
2022/02/16 01:37:45;;;;;;;1.03;0.70;;;6.50;99.90;;;;;;5093319;28;20176;-67
2022/02/16 01:40:12;;;;;;;2.00;0.87;;;6.50;99.90;;;;;;5092862;28;20242;-67
2022/02/16 01:42:38;;;;;;;0.60;0.50;;;6.50;99.90;;;;;;5092982;28;20171;-68
2022/02/16 01:45:04;;;;;;;0.70;0.70;;;6.50;99.90;;;;;;5092679;28;20664;-69
2022/02/16 01:47:30;;;;;;;1.40;0.98;;;6.50;99.90;;;;;;5093018;28;20195;-69
2022/02/16 01:49:56;;;;;;;1.37;1.20;;;6.50;99.90;;;;;;5095830;28;20164;-69
2022/02/16 01:52:22;;;;;;;1.02;0.70;;;6.50;99.90;;;;;;5096636;28;20677;-66
2022/02/16 01:54:48;;;;;;;1.50;0.70;;;6.50;99.90;;;;;;5095974;28;20184;-67
2022/02/16 01:57:14;;;;;;;0.60;0.60;;;6.50;99.90;;;;;;5096525;28;20185;-68
2022/02/16 01:59:39;;;;;;;2.13;0.80;;;6.50;99.90;;;;;;5096321;28;20214;-66
2022/02/16 02:02:07;;;;;;;1.00;1.00;;;6.40;99.90;;;;;;5096605;28;20984;-68
2022/02/16 02:04:33;;;;;;;0.90;0.90;;;6.50;99.90;;;;;;5095911;28;20220;-70
2022/02/16 02:06:59;;;;;;;0.80;0.80;;;6.50;99.90;;;;;;5096606;28;20226;-65
2022/02/16 02:09:24;;;;;;;1.10;1.03;;;6.50;99.90;;;;;;5096229;28;20173;-67
2022/02/16 02:11:50;;;;;;;0.80;0.80;;;6.50;99.90;;;;;;5096609;28;20651;-67
2022/02/16 02:14:16;;;;;;;0.80;0.60;;;6.50;99.90;;;;;;5095857;28;20831;-67
2022/02/16 02:16:42;;;;;;;1.27;0.80;;;6.40;99.90;;;;;;5096081;28;20162;-68
2022/02/16 02:19:09;;;;;;;0.90;0.73;;;6.40;99.90;;;;;;5096079;28;20166;-65
2022/02/16 02:21:35;;;;;;;0.50;0.50;;;6.40;99.90;;;;;;5096026;28;20164;-70
2022/02/16 02:24:00;;;;;;;7.00;1.70;;;6.40;99.90;;;;;;5095045;28;20191;-70
2022/02/16 02:26:26;;;;;;;2.40;1.00;;;6.40;99.90;;;;;;5095750;28;20185;-69
2022/02/16 02:28:52;;;;;;;0.80;0.80;;;6.40;99.90;;;;;;5096231;28;20525;-67
2022/02/16 02:31:35;;;;;;;1.30;1.00;;;6.40;99.90;;;;;;5095921;28;20265;-67
2022/02/16 02:34:02;;;;;;;0.70;0.70;;;6.40;99.90;;;;;;5095425;28;20182;-68
2022/02/16 02:36:28;;;;;;;0.73;0.70;;;6.40;99.90;;;;;;5096146;28;20189;-68
2022/02/16 02:38:54;;;;;;;0.55;0.55;;;6.40;99.90;;;;;;5095396;28;20214;-68
2022/02/16 02:41:21;;;;;;;0.50;0.50;;;6.40;99.90;;;;;;5095816;28;20205;-67
2022/02/16 02:43:47;;;;;;;0.82;0.63;;;6.40;99.90;;;;;;5095131;28;20189;-67
2022/02/16 02:46:14;;;;;;;1.17;0.70;;;6.40;99.90;;;;;;5096655;28;20242;-64
2022/02/16 02:48:40;;;;;;;1.75;0.63;;;6.40;99.90;;;;;;5095449;28;20252;-68
2022/02/16 02:51:05;;;;;;;3.17;0.73;;;6.50;99.90;;;;;;5095491;28;20176;-68
2022/02/16 02:53:31;;;;;;;0.50;0.50;;;6.50;99.90;;;;;;5094622;28;20739;-67
2022/02/16 02:55:57;;;;;;;2.87;0.90;;;6.50;99.90;;;;;;5095234;28;20190;-65
2022/02/16 02:58:23;;;;;;;1.10;0.97;;;6.50;99.90;;;;;;5095062;28;20228;-69
2022/02/16 03:00:49;;;;;;;0.60;0.60;;;6.60;99.90;;;;;;5094410;28;20420;-67
2022/02/16 03:03:14;;;;;;;1.05;0.95;;;6.60;99.90;;;;;;5094901;28;20589;-70
2022/02/16 03:05:40;;;;;;;0.63;0.63;;;6.60;99.90;;;;;;5095176;28;20219;-64
2022/02/16 03:08:06;;;;;;;0.80;0.67;;;6.60;99.90;;;;;;5094954;28;20197;-65
2022/02/16 03:10:32;;;;;;;0.60;0.60;;;6.60;99.90;;;;;;5093968;28;20171;-67
2022/02/16 03:12:57;;;;;;;0.60;0.60;;;6.70;99.90;;;;;;5093812;28;20173;-67
2022/02/16 03:15:23;;;;;;;0.87;0.50;;;6.70;99.90;;;;;;5094397;28;20202;-66
2022/02/16 03:17:49;;;;;;;1.63;0.60;;;6.70;99.90;;;;;;5094974;28;20253;-66
2022/02/16 03:20:15;;;;;;;0.70;0.70;;;6.70;99.90;;;;;;5095053;28;20217;-69
2022/02/16 03:22:40;;;;;;;0.67;0.60;;;6.80;99.90;;;;;;5093313;28;20172;-65
2022/02/16 03:25:08;;;;;;;0.47;0.47;;;6.80;99.90;;;;;;5095049;28;20461;-68
2022/02/16 03:27:34;;;;;;;0.57;0.57;;;6.80;99.90;;;;;;5094791;28;20456;-64
2022/02/16 03:30:01;;;;;;;0.75;0.50;;;6.80;99.90;;;;;;5094747;28;20584;-69
2022/02/16 03:32:26;;;;;;;0.40;0.40;;;6.80;99.90;;;;;;5094761;28;20168;-65
2022/02/16 03:34:52;;;;;;;5.40;0.97;;;6.90;99.90;;;;;;5094318;28;20190;-67
2022/02/16 03:37:18;;;;;;;0.93;0.83;;;6.90;99.90;;;;;;5094645;28;20175;-66
2022/02/16 03:39:44;;;;;;;0.47;0.47;;;6.90;99.90;;;;;;5094710;28;20177;-68
2022/02/16 03:42:10;;;;;;;0.47;0.47;;;6.90;99.90;;;;;;5093249;28;20181;-65
2022/02/16 03:44:36;;;;;;;0.40;0.40;;;7.00;99.90;;;;;;5093977;28;20524;-68
2022/02/16 03:47:02;;;;;;;0.57;0.57;;;7.00;99.90;;;;;;5093109;28;20228;-66
2022/02/16 03:49:28;;;;;;;0.60;0.60;;;7.00;99.90;;;;;;5094579;28;20263;-68
2022/02/16 03:51:54;;;;;;;0.40;0.40;;;7.00;99.90;;;;;;5094332;28;20524;-67
2022/02/16 03:54:19;;;;;;;0.63;0.63;;;7.00;99.90;;;;;;5093888;28;20329;-64
2022/02/16 03:56:46;;;;;;;0.87;0.53;;;7.10;99.90;;;;;;5094378;28;20171;-69
2022/02/16 03:59:11;;;;;;;0.60;0.60;;;7.10;99.90;;;;;;5093930;28;20217;-67
2022/02/16 04:01:37;;;;;;;0.97;0.60;;;7.10;99.90;;;;;;5092998;28;20183;-66
2022/02/16 04:04:03;;;;;;;0.50;0.50;;;7.20;99.90;;;;;;5093497;28;20206;-65
2022/02/16 04:06:29;;;;;;;1.15;1.05;;;7.20;99.90;;;;;;5094194;28;20420;-69
2022/02/16 04:08:55;;;;;;;0.53;0.53;;;7.20;99.90;;;;;;5094169;28;20255;-66
2022/02/16 04:11:26;;;;;;;0.30;0.30;;;7.20;99.90;;;;;;5093911;28;20409;-69
2022/02/16 04:13:55;;;;;;;0.60;0.60;;;7.30;99.90;;;;;;5093379;28;20221;-65
2022/02/16 04:16:22;;;;;;;0.60;0.60;;;7.30;99.90;;;;;;5092670;28;20182;-66
2022/02/16 04:18:47;;;;;;;0.82;0.63;;;7.30;99.90;;;;;;5094076;28;20530;-70
2022/02/16 04:21:13;;;;;;;0.50;0.40;;;7.30;99.90;;;;;;5093957;28;20224;-68
2022/02/16 04:23:41;;;;;;;0.63;0.57;;;7.30;99.90;;;;;;5093443;28;20630;-66
2022/02/16 04:26:07;;;;;;;0.50;0.50;;;7.30;99.90;;;;;;5093893;28;20600;-68
2022/02/16 04:28:33;;;;;;;0.60;0.60;;;7.30;99.90;;;;;;5093264;28;20230;-69
2022/02/16 04:30:58;;;;;;;0.67;0.50;;;7.30;99.90;;;;;;5093793;28;20167;-66
2022/02/16 04:33:24;;;;;;;0.47;0.47;;;7.30;99.90;;;;;;5093348;28;20507;-68
2022/02/16 04:35:49;;;;;;;0.60;0.60;;;7.30;99.90;;;;;;5093571;28;20297;-64
2022/02/16 04:38:16;;;;;;;1.60;0.63;;;7.40;99.90;;;;;;5093824;28;20251;-68
2022/02/16 04:40:42;;;;;;;0.45;0.45;;;7.40;99.90;;;;;;5093624;28;20174;-65
2022/02/16 04:43:07;;;;;;;0.70;0.70;;;7.40;99.90;;;;;;5092943;28;20175;-68
2022/02/16 04:45:34;;;;;;;0.60;0.60;;;7.40;99.90;;;;;;5093613;28;20536;-66
2022/02/16 04:48:01;;;;;;;3.10;0.77;;;7.40;99.90;;;;;;5093580;28;20223;-68
2022/02/16 04:50:26;;;;;;;0.50;0.50;;;7.40;99.90;;;;;;5093681;28;20179;-67
2022/02/16 04:52:55;;;;;;;0.40;0.40;;;7.50;99.90;;;;;;5093204;28;20168;-67
2022/02/16 04:55:22;;;;;;;0.40;0.40;;;7.50;99.90;;;;;;5093519;28;20444;-67
2022/02/16 04:57:48;;;;;;;0.60;0.60;;;7.50;99.90;;;;;;5093414;28;20515;-67
2022/02/16 05:00:15;;;;;;;0.47;0.47;;;7.50;99.90;;;;;;5093388;28;20170;-69
2022/02/16 05:02:40;;;;;;;1.15;0.60;;;7.50;99.90;;;;;;5093232;28;20170;-68
2022/02/16 05:05:07;;;;;;;0.40;0.40;;;7.60;99.90;;;;;;5093042;28;20216;-69
2022/02/16 05:07:33;;;;;;;0.80;0.77;;;7.60;99.90;;;;;;5093454;28;20781;-63
2022/02/16 05:09:59;;;;;;;0.40;0.40;;;7.60;99.90;;;;;;5093972;28;20202;-69
2022/02/16 05:12:24;;;;;;;0.53;0.40;;;7.70;99.90;;;;;;5092980;28;20465;-66
2022/02/16 05:14:50;;;;;;;0.93;0.60;;;7.70;99.90;;;;;;5092913;28;20255;-69
2022/02/16 05:17:16;;;;;;;0.50;0.50;;;7.70;99.90;;;;;;5093447;28;20182;-66
2022/02/16 05:19:42;;;;;;;0.40;0.40;;;7.70;99.90;;;;;;5093377;28;20558;-65
2022/02/16 05:22:08;;;;;;;1.15;0.63;;;7.70;99.90;;;;;;5093119;28;20254;-68
2022/02/16 05:24:34;;;;;;;0.50;0.50;;;7.80;99.90;;;;;;5095665;28;20697;-66
2022/02/16 05:26:59;;;;;;;0.40;0.40;;;7.70;99.90;;;;;;5097294;28;20312;-69
2022/02/16 05:29:25;;;;;;;0.30;0.30;;;7.80;99.90;;;;;;5097139;28;20179;-66
2022/02/16 05:31:51;;;;;;;0.50;0.50;;;7.80;99.90;;;;;;5096698;28;20216;-69
2022/02/16 05:34:16;;;;;;;0.40;0.40;;;7.80;99.90;;;;;;5096279;28;20560;-65
2022/02/16 05:36:43;;;;;;;0.53;0.53;;;7.80;99.90;;;;;;5096837;28;20210;-69
2022/02/16 05:39:08;;;;;;;0.40;0.40;;;7.80;99.90;;;;;;5097072;28;20567;-65
2022/02/16 05:41:34;;;;;;;0.40;0.40;;;7.80;99.90;;;;;;5097017;28;20262;-70
2022/02/16 05:44:00;;;;;;;0.80;0.80;;;7.80;99.90;;;;;;5096133;28;20231;-66
2022/02/16 05:46:25;;;;;;;0.30;0.30;;;7.80;99.90;;;;;;5096522;28;20183;-70
2022/02/16 05:48:51;;;;;;;0.30;0.30;;;7.80;99.90;;;;;;5096649;28;20208;-66
2022/02/16 05:51:17;;;;;;;0.90;0.50;;;7.80;99.90;;;;;;5096831;28;20175;-66
2022/02/16 05:53:43;;;;;;;0.40;0.40;;;7.80;99.90;;;;;;5096127;28;20445;-67
2022/02/16 05:56:09;;;;;;;1.43;0.70;;;7.80;99.90;;;;;;5096828;28;20397;-66
2022/02/16 05:58:34;;;;;;;0.50;0.50;;;7.80;99.90;;;;;;5096490;28;20243;-67
2022/02/16 06:01:01;;;;;;;0.47;0.47;;;7.80;99.90;;;;;;5096481;28;20425;-67
2022/02/16 06:03:26;;;;;;;1.10;1.00;;;7.80;99.90;;;;;;5095731;28;20181;-70
2022/02/16 06:05:52;;;;;;;0.40;0.40;;;7.80;99.90;;;;;;5076175;28;20291;-65
2022/02/16 06:08:18;;;;;;;0.53;0.53;;;7.70;99.90;;;;;;5076246;28;20205;-68
2022/02/16 06:10:44;;;;;;;0.63;0.63;;;7.80;99.90;;;;;;5075983;28;20396;-66
2022/02/16 06:13:12;;;;;;;0.50;0.50;;;7.70;99.90;;;;;;5075523;28;20223;-65
2022/02/16 06:15:38;;;;;;;0.40;0.40;;;7.80;99.90;;;;;;5078022;28;20200;-65
2022/02/16 06:18:04;;;;;;;0.60;0.60;;;7.80;99.90;;;;;;5095203;28;20231;-66
2022/02/16 06:20:29;;;;;;;0.60;0.60;;;7.70;99.90;;;;;;5094375;28;20496;-70
2022/02/16 06:22:56;;;;;;;0.60;0.50;;;7.80;99.90;;;;;;5095381;28;20421;-67
2022/02/16 06:25:23;;;;;;;0.40;0.40;;;7.80;99.90;;;;;;5095881;28;20683;-67
2022/02/16 06:27:49;;;;;;;0.40;0.40;;;7.80;99.90;;;;;;5095977;28;20675;-68
2022/02/16 06:30:14;;;;;;;0.30;0.30;;;7.80;99.90;;;;;;5095380;28;20254;-68
2022/02/16 06:32:40;;;;;;;0.30;0.30;;;7.80;99.90;;;;;;5094153;28;20946;-65
2022/02/16 06:35:06;;;;;;;0.40;0.40;;;7.80;99.90;;;;;;5095561;28;20658;-68
2022/02/16 06:37:32;;;;;;;0.50;0.40;;;7.90;99.90;;;;;;5095896;28;20274;-64
2022/02/16 06:39:57;;;;;;;0.57;0.57;;;7.90;99.90;;;;;;5095486;28;20417;-70
2022/02/16 06:42:23;;;;;;;0.40;0.40;;;7.90;99.90;;;;;;5095708;28;20542;-66
2022/02/16 06:44:48;;;;;;;0.50;0.50;;;7.90;99.90;;;;;;5094958;28;20195;-68
2022/02/16 06:47:14;;;;;;;0.60;0.40;;;7.90;99.90;;;;;;5095421;28;20201;-67
2022/02/16 06:49:40;;;;;;;0.30;0.30;;;7.90;99.90;;;;;;5095317;28;20228;-64
2022/02/16 06:52:05;;;;;;;1.03;0.70;;;8.00;99.90;;;;;;5095817;28;20221;-67
2022/02/16 06:54:32;;;;;;;0.77;0.40;;;8.00;99.90;;;;;;5094983;28;20191;-69
2022/02/16 06:56:59;;;;;;;0.77;0.77;;;8.00;99.90;;;;;;5094161;28;20410;-67
2022/02/16 06:59:24;;;;;;;0.50;0.50;;;8.10;99.90;;;;;;5093449;28;20178;-65
2022/02/16 07:01:50;;;;;;;0.40;0.40;;;8.00;99.90;;;;;;5091794;28;20171;-70
2022/02/16 07:04:15;;;;;;;0.50;0.37;;;8.00;99.90;;;;;;5094015;28;20267;-68
2022/02/16 07:06:41;;;;;;;0.57;0.57;;;8.10;99.90;;;;;;5093520;28;20172;-71
2022/02/16 07:09:07;;;;;;;0.37;0.37;;;8.10;99.90;;;;;;5093578;28;20175;-66
2022/02/16 07:11:32;;;;;;;0.40;0.40;;;8.10;99.90;;;;;;5094409;28;20538;-70
2022/02/16 07:13:58;;;;;;;0.50;0.40;;;8.10;99.90;;;;;;5094578;28;20188;-67
2022/02/16 07:16:24;;;;;;;0.57;0.57;;;8.10;99.90;;;;;;5092223;28;20179;-67
2022/02/16 07:18:49;;;;;;;0.40;0.40;;;8.10;99.90;;;;;;5094610;28;20694;-65
2022/02/16 07:21:15;;;;;;;0.40;0.40;;;8.10;99.90;;;;;;5095122;28;20198;-69
2022/02/16 07:23:43;;;;;;;0.40;0.40;;;8.10;99.90;;;;;;5094355;28;20285;-70
2022/02/16 07:26:10;;;;;;;0.40;0.40;;;8.10;99.90;;;;;;5093958;28;20255;-66
2022/02/16 07:28:35;;;;;;;0.40;0.40;;;8.10;99.90;;;;;;5094349;28;20234;-66
2022/02/16 07:31:01;;;;;;;0.40;0.40;;;8.10;99.90;;;;;;5094687;28;20200;-70
2022/02/16 07:33:27;;;;;;;0.40;0.40;;;8.10;99.90;;;;;;5094394;28;20503;-64
2022/02/16 07:35:52;;;;;;;0.50;0.30;;;8.10;99.90;;;;;;5094487;28;20190;-63
2022/02/16 07:38:18;;;;;;;0.40;0.40;;;8.10;99.90;;;;;;5094278;28;20187;-69
2022/02/16 07:40:44;;;;;;;1.23;0.67;;;8.10;99.90;;;;;;5094542;28;20171;-63
2022/02/16 07:43:09;;;;;;;0.60;0.60;;;8.20;99.90;;;;;;5094006;28;20168;-69
2022/02/16 07:45:35;;;;;;;0.40;0.40;;;8.10;99.90;;;;;;5094741;28;20191;-68
2022/02/16 07:48:01;;;;;;;1.50;0.50;;;8.00;99.90;;;;;;5092685;28;20202;-65
2022/02/16 07:50:28;;;;;;;0.40;0.40;;;8.00;99.90;;;;;;5094579;28;20164;-68
2022/02/16 07:52:55;;;;;;;0.68;0.43;;;8.00;99.90;;;;;;5093490;28;20789;-66
2022/02/16 07:55:21;;;;;;;0.70;0.70;;;8.00;99.90;;;;;;5094243;28;20195;-67
2022/02/16 07:57:47;;;;;;;0.95;0.65;;;7.90;99.90;;;;;;5094253;28;20167;-65
2022/02/16 08:00:13;;;;;;;0.60;0.60;;;7.90;99.90;;;;;;5094225;28;20182;-67
2022/02/16 08:02:39;;;;;;;0.50;0.50;;;7.90;99.90;;;;;;5093674;28;20493;-65
2022/02/16 08:05:05;;;;;;;0.50;0.50;;;7.90;99.90;;;;;;5093641;28;20606;-70
2022/02/16 08:07:30;;;;;;;0.70;0.70;;;7.90;99.90;;;;;;5093531;28;20344;-65
2022/02/16 08:09:56;;;;;;;0.50;0.50;;;7.90;99.90;;;;;;5093250;28;20425;-69
2022/02/16 08:12:22;;;;;;;0.40;0.40;;;7.90;99.90;;;;;;5094028;28;20257;-66
2022/02/16 08:14:48;;;;;;;0.90;0.90;;;7.90;99.90;;;;;;5092966;28;20437;-67
2022/02/16 08:17:13;;;;;;;0.40;0.40;;;7.90;99.90;;;;;;5093872;28;20176;-67
2022/02/16 08:19:39;;;;;;;0.73;0.73;;;7.90;99.90;;;;;;5093724;28;20263;-67
2022/02/16 08:22:05;;;;;;;0.50;0.50;;;8.00;99.90;;;;;;5093845;28;20620;-68
2022/02/16 08:24:31;;;;;;;0.40;0.37;;;8.00;99.90;;;;;;5093265;28;20689;-66
2022/02/16 08:26:57;;;;;;;0.70;0.70;;;8.00;99.90;;;;;;5093670;28;20849;-68
2022/02/16 08:29:25;;;;;;;0.57;0.57;;;8.00;99.90;;;;;;5093298;28;20225;-65
2022/02/16 08:31:52;;;;;;;0.50;0.50;;;8.00;99.90;;;;;;5093590;28;20213;-63
2022/02/16 08:34:18;;;;;;;0.60;0.60;;;8.10;99.90;;;;;;5093007;28;20642;-65
2022/02/16 08:36:45;;;;;;;0.60;0.60;;;8.00;99.90;;;;;;5093785;28;20579;-66
2022/02/16 08:39:11;;;;;;;0.93;0.60;;;7.90;99.90;;;;;;5093482;28;20176;-67
2022/02/16 08:41:38;;;;;;;0.35;0.35;;;7.90;99.90;;;;;;5093551;28;20171;-69
2022/02/16 08:44:04;;;;;;;0.77;0.50;;;7.80;99.90;;;;;;5092221;28;20184;-65
2022/02/16 08:46:30;;;;;;;0.50;0.50;;;7.80;99.90;;;;;;5093460;28;20620;-68
2022/02/16 08:49:00;;;;;;;0.50;0.50;;;7.70;99.90;;;;;;5093456;28;20199;-67
2022/02/16 08:51:28;;;;;;;0.50;0.50;;;7.70;99.90;;;;;;5093247;28;20164;-68
2022/02/16 08:53:54;;;;;;;0.70;0.70;;;7.60;99.90;;;;;;5092793;28;20287;-66
2022/02/16 08:56:19;;;;;;;0.67;0.67;;;7.60;99.90;;;;;;5093334;28;20191;-67
2022/02/16 08:58:45;;;;;;;0.70;0.60;;;7.60;99.90;;;;;;5094020;28;20413;-68
2022/02/16 09:01:11;;;;;;;1.03;0.70;;;7.60;99.90;;;;;;5097833;28;20174;-65
2022/02/16 09:03:37;;;;;;;1.05;1.02;;;7.50;99.90;;;;;;5096789;28;20183;-67
2022/02/16 09:06:03;;;;;;;0.50;0.50;;;7.50;99.90;;;;;;5097369;28;20183;-61
2022/02/16 09:08:28;;;;;;;0.60;0.60;;;7.50;99.90;;;;;;5097190;28;20199;-68
2022/02/16 09:10:54;;;;;;;0.50;0.50;;;7.60;99.90;;;;;;5097267;28;20168;-63
2022/02/16 09:13:20;;;;;;;0.70;0.70;;;7.60;99.90;;;;;;5096606;28;20183;-66
2022/02/16 09:15:46;;;;;;;0.40;0.40;;;7.60;99.90;;;;;;5097482;28;20202;-67
2022/02/16 09:18:11;;;;;;;0.60;0.60;;;7.50;99.90;;;;;;5097278;28;20434;-67
2022/02/16 09:20:37;;;;;;;0.60;0.43;;;7.60;99.90;;;;;;5095748;28;20263;-66
2022/02/16 09:23:03;;;;;;;0.57;0.57;;;7.50;99.90;;;;;;5096829;28;20772;-66
2022/02/16 09:25:30;;;;;;;0.40;0.40;;;7.60;99.90;;;;;;5097241;28;20202;-65
2022/02/16 09:27:56;;;;;;;1.15;0.82;;;7.50;99.90;;;;;;5096883;28;20278;-65
2022/02/16 09:30:21;;;;;;;0.60;0.60;;;7.50;99.90;;;;;;5097054;28;20259;-64
2022/02/16 09:32:47;;;;;;;0.67;0.67;;;7.60;99.90;;;;;;5096951;28;20178;-66
2022/02/16 09:35:13;;;;;;;0.30;0.30;;;7.60;99.90;;;;;;5097094;28;20580;-66
2022/02/16 09:37:38;;;;;;;0.70;0.70;;;7.70;99.90;;;;;;5097075;28;20779;-69
2022/02/16 09:40:05;;;;;;;0.60;0.40;;;7.70;99.90;;;;;;5095492;28;20181;-69
2022/02/16 09:42:34;;;;;;;0.45;0.45;;;7.80;99.90;;;;;;5096384;28;20202;-68
2022/02/16 09:45:04;;;;;;;0.50;0.50;;;7.80;99.90;;;;;;5096227;28;20200;-70
2022/02/16 09:47:32;;;;;;;0.60;0.60;;;7.80;99.90;;;;;;5096878;28;20231;-65
2022/02/16 09:49:59;;;;;;;0.68;0.40;;;7.80;99.90;;;;;;5096415;28;20174;-70
2022/02/16 09:52:25;;;;;;;0.50;0.50;;;7.90;99.90;;;;;;5096676;28;20172;-67
2022/02/16 09:54:51;;;;;;;0.50;0.50;;;8.00;99.90;;;;;;5096277;28;20184;-72
2022/02/16 09:57:17;;;;;;;0.70;0.70;;;8.10;99.90;;;;;;5096115;28;20180;-68
2022/02/16 09:59:43;;;;;;;0.60;0.60;;;8.10;99.90;;;;;;5096721;28;20255;-74
2022/02/16 10:02:11;;;;;;;0.60;0.60;;;8.20;99.90;;;;;;5095294;28;20200;-68
2022/02/16 10:04:40;;;;;;;0.40;0.40;;;8.20;99.90;;;;;;5095915;28;20196;-68
2022/02/16 10:07:34;;;;;;;0.30;0.30;;;8.30;99.90;;;;;;5096281;28;20191;-69
2022/02/16 10:10:26;;;;;;;0.60;0.50;;;8.30;99.90;;;;;;5096185;28;20221;-66
2022/02/16 10:12:54;;;;;;;0.50;0.50;;;8.40;99.90;;;;;;5096209;28;20209;-68
2022/02/16 10:15:43;;;;;;;0.50;0.50;;;8.50;99.90;;;;;;5095376;28;20259;-70
2022/02/16 10:18:15;;;;;;;0.40;0.40;;;8.60;99.90;;;;;;5096745;28;20522;-70
2022/02/16 10:20:42;;;;;;;0.68;0.68;;;8.60;99.90;;;;;;5096430;28;20172;-67
2022/02/16 10:23:09;;;;;;;0.70;0.50;;;8.70;99.90;;;;;;5096203;28;20169;-72
2022/02/16 10:25:36;;;;;;;0.50;0.40;;;8.80;99.90;;;;;;5096053;28;20207;-67
2022/02/16 10:28:07;;;;;;;0.77;0.70;;;8.80;99.90;;;;;;5096311;28;20195;-70
2022/02/16 10:30:36;;;;;;;0.30;0.30;;;8.90;99.90;;;;;;5096331;28;20167;-68
2022/02/16 10:33:23;;;;;;;0.43;0.43;;;8.90;99.90;;;;;;5097684;28;20176;-69
2022/02/16 10:35:56;;;;;;;0.60;0.60;;;9.00;99.90;;;;;;5104652;28;20199;-72
2022/02/16 10:38:22;;;;;;;0.50;0.50;;;9.10;99.90;;;;;;5104008;28;20279;-72
2022/02/16 10:41:03;;;;;;;0.60;0.60;;;9.10;99.90;;;;;;5103203;28;20219;-67
2022/02/16 10:43:39;;;;;;;1.45;0.55;;;9.20;99.90;;;;;;5104754;28;20270;-70
2022/02/16 10:46:19;;;;;;;0.40;0.40;;;9.30;99.90;;;;;;5103520;28;20171;-68
2022/02/16 10:48:44;;;;;;;0.77;0.70;;;9.50;99.90;;;;;;5102504;28;20681;-66
2022/02/16 10:51:19;;;;;;;0.70;0.70;;;9.50;99.90;;;;;;5099809;28;20172;-69
2022/02/16 10:53:45;;;;;;;0.70;0.57;;;9.70;99.90;;;;;;5095076;28;20172;-68
2022/02/16 10:56:11;;;;;;;0.68;0.50;;;9.70;99.90;;;;;;5095494;28;20257;-69
2022/02/16 10:58:38;;;;;;;0.30;0.30;;;9.80;99.90;;;;;;5095539;28;20713;-68
2022/02/16 11:01:04;;;;;;;0.40;0.40;;;10.00;99.90;;;;;;5095546;28;20214;-68
2022/02/16 11:03:32;;;;;;;0.55;0.55;;;10.10;99.90;;;;;;5094691;28;20185;-68
2022/02/16 11:06:00;;;;;;;0.50;0.50;;;10.20;99.90;;;;;;5095260;28;20196;-68
2022/02/16 11:08:27;;;;;;;0.63;0.63;;;10.30;99.90;;;;;;5095389;28;20558;-70
2022/02/16 11:10:53;;;;;;;0.50;0.50;;;10.40;99.90;;;;;;5095150;28;20178;-67
2022/02/16 11:13:27;;;;;;;0.40;0.40;;;10.50;99.90;;;;;;5094927;28;20200;-69
2022/02/16 11:15:53;;;;;;;0.30;0.25;;;10.50;99.90;;;;;;5094970;28;20246;-67
2022/02/16 11:18:25;;;;;;;0.60;0.50;;;10.50;99.90;;;;;;5094857;28;20183;-71
2022/02/16 11:21:14;;;;;;;0.52;0.47;;;10.50;99.90;;;;;;5094513;28;20261;-67
2022/02/16 11:23:44;;;;;;;0.40;0.30;;;10.50;99.90;;;;;;5094579;28;20180;-68
2022/02/16 11:26:29;;;;;;;0.93;0.40;;;10.50;99.90;;;;;;5095093;28;20647;-66
2022/02/16 11:28:55;;;;;;;0.40;0.40;;;10.60;99.90;;;;;;5094600;28;20208;-67
2022/02/16 11:31:42;;;;;;;0.47;0.40;;;10.60;99.90;;;;;;5095000;28;20208;-70
2022/02/16 11:34:15;;;;;;;0.50;0.50;;;10.70;99.90;;;;;;5094128;28;20224;-68
2022/02/16 11:36:46;;;;;;;0.80;0.60;;;10.80;99.90;;;;;;5093548;28;20630;-69
2022/02/16 11:39:31;;;;;;;0.55;0.50;;;10.80;99.90;;;;;;5094834;28;20506;-68
2022/02/16 11:41:57;;;;;;;0.67;0.67;;;10.80;99.90;;;;;;5094772;28;20200;-67
2022/02/16 11:44:23;;;;;;;0.60;0.60;;;10.90;99.90;;;;;;5094090;28;20447;-69
2022/02/16 11:46:54;;;;;;;0.50;0.40;;;11.00;99.90;;;;;;5094700;28;20408;-68
2022/02/16 11:49:28;;;;;;;0.40;0.40;;;11.10;99.90;;;;;;5094336;28;20626;-67
2022/02/16 11:51:58;;;;;;;0.60;0.60;;;11.10;99.90;;;;;;5094406;28;20456;-68
2022/02/16 11:54:53;;;;;;;0.70;0.70;;;11.20;99.90;;;;;;5093858;28;20192;-66
2022/02/16 11:57:36;;;;;;;0.93;0.57;;;11.30;99.90;;;;;;5094390;28;20408;-68
2022/02/16 12:00:11;;;;;;;0.30;0.30;;;11.40;99.90;;;;;;5094157;28;20416;-68
2022/02/16 12:02:59;;;;;;;0.80;0.80;;;11.40;99.90;;;;;;5094037;28;20424;-65
2022/02/16 12:06:02;;;;;;;0.77;0.60;;;11.50;99.90;;;;;;5094099;28;20813;-66
2022/02/16 12:08:42;;;;;;;0.50;0.50;;;11.60;99.90;;;;;;5093922;28;20459;-69
2022/02/16 12:11:19;;;;;;;0.43;0.43;;;11.60;99.90;;;;;;5093902;28;20434;-67
2022/02/16 12:14:11;;;;;;;0.40;0.30;;;11.70;99.90;;;;;;5093349;28;20415;-67
2022/02/16 12:16:42;;;;;;;0.40;0.38;;;11.70;99.90;;;;;;5093612;28;20496;-67
2022/02/16 12:19:16;;;;;;;0.57;0.57;;;11.70;99.90;;;;;;5093990;28;20233;-65
2022/02/16 12:21:53;;;;;;;0.85;0.40;;;11.70;99.90;;;;;;5093835;28;20183;-66
2022/02/16 12:24:28;;;;;;;0.77;0.65;;;11.70;99.90;;;;;;5093620;28;20193;-66
2022/02/16 12:26:57;;;;;;;0.50;0.50;;;11.70;99.90;;;;;;5092745;28;20180;-67
2022/02/16 12:29:41;;;;;;;0.60;0.60;;;11.70;99.90;;;;;;5093506;28;20910;-65
2022/02/16 12:32:08;;;;;;;0.68;0.50;;;11.70;99.90;;;;;;5093792;28;20450;-65
2022/02/16 12:34:35;;;;;;;0.30;0.30;;;11.60;99.90;;;;;;5093068;28;20225;-68
2022/02/16 12:37:06;;;;;;;0.50;0.50;;;11.70;99.90;;;;;;5092528;28;20419;-67
2022/02/16 12:39:33;;;;;;;0.40;0.40;;;11.70;99.90;;;;;;5093786;28;20394;-65
2022/02/16 12:42:03;;;;;;;2.22;0.93;;;11.70;99.90;;;;;;5093648;28;20386;-69
2022/02/16 12:44:31;;;;;;;0.60;0.40;;;11.60;99.90;;;;;;5092933;28;20590;-68
2022/02/16 12:46:57;;;;;;;0.43;0.43;;;11.60;99.90;;;;;;5093571;28;20380;-68
2022/02/16 12:49:24;;;;;;;1.50;0.40;;;11.60;99.90;;;;;;5093557;28;20410;-67
2022/02/16 12:51:52;;;;;;;1.00;0.90;;;11.60;99.90;;;;;;5093751;28;20544;-66
2022/02/16 12:54:21;;;;;;;0.47;0.40;;;11.60;99.90;;;;;;5092960;28;20823;-68
2022/02/16 12:56:52;;;;;;;1.63;0.30;;;11.60;99.90;;;;;;5092993;28;20880;-67